Merkel, Texas
Current Conditions -  °F | °C
As of 7:58 AM on Sunday 25 Jan 2015 (Local Time) from KDYS Reporting Station
Clear Clear  
Wind Chill: 35°   Ceiling: Unl
Heat Index: 41°   Visibility: 10mi
Dew Point: 32°   Wind: 10mph
Humidity: 70%   Direction: 300°WNW
Pressure: 30.13"   Gusts: NA
Location:  32.47°N, 100.01°W
Report Text: KDYS 251358Z AUTO 30009KT 10SM CLR 05/00 A3013 RMK AO2 SLP206 T00491002 $
Loading
Personal Weather Stations






























Interactive Weather Map New forecast layout! Learn more

10-Day Weather Forecast

Advertisements
Track Severe Weather on mobile